sensor_id;sensor_type;location;lat;lon;timestamp;pressure;altitude;pressure_sealevel;temperature;humidity
46015;BME280;36844;51.898;-0.874;2022-12-18T00:00:56;100982.50;;;19.93;
46015;BME280;36844;51.898;-0.874;2022-12-18T00:03:21;100987.53;;;19.91;
46015;BME280;36844;51.898;-0.874;2022-12-18T00:05:50;100984.47;;;19.89;
46015;BME280;36844;51.898;-0.874;2022-12-18T00:08:15;100987.56;;;19.87;
46015;BME280;36844;51.898;-0.874;2022-12-18T00:10:41;100979.47;;;19.84;
46015;BME280;36844;51.898;-0.874;2022-12-18T00:13:06;100974.88;;;19.81;
46015;BME280;36844;51.898;-0.874;2022-12-18T00:15:33;100970.22;;;19.77;
46015;BME280;36844;51.898;-0.874;2022-12-18T00:17:58;100958.25;;;19.75;
46015;BME280;36844;51.898;-0.874;2022-12-18T00:20:24;100969.09;;;19.71;
46015;BME280;36844;51.898;-0.874;2022-12-18T00:22:51;100966.03;;;19.69;
46015;BME280;36844;51.898;-0.874;2022-12-18T00:25:16;100966.81;;;19.66;
46015;BME280;36844;51.898;-0.874;2022-12-18T00:27:41;100967.63;;;19.63;
46015;BME280;36844;51.898;-0.874;2022-12-18T00:30:07;100956.03;;;19.59;
46015;BME280;36844;51.898;-0.874;2022-12-18T00:32:32;100962.63;;;19.58;
46015;BME280;36844;51.898;-0.874;2022-12-18T00:34:57;100964.56;;;19.54;
46015;BME280;36844;51.898;-0.874;2022-12-18T00:37:23;100970.75;;;19.51;
46015;BME280;36844;51.898;-0.874;2022-12-18T00:39:48;100966.13;;;19.48;
46015;BME280;36844;51.898;-0.874;2022-12-18T00:42:13;100961.53;;;19.45;
46015;BME280;36844;51.898;-0.874;2022-12-18T00:44:57;100955.34;;;19.41;
46015;BME280;36844;51.898;-0.874;2022-12-18T00:47:23;100957.72;;;19.39;
46015;BME280;36844;51.898;-0.874;2022-12-18T00:49:48;100958.88;;;19.35;
46015;BME280;36844;51.898;-0.874;2022-12-18T00:52:13;100963.13;;;19.32;
46015;BME280;36844;51.898;-0.874;2022-12-18T00:54:38;100952.31;;;19.29;
46015;BME280;36844;51.898;-0.874;2022-12-18T00:57:04;100958.53;;;19.26;
46015;BME280;36844;51.898;-0.874;2022-12-18T00:59:29;100961.25;;;19.22;
46015;BME280;36844;51.898;-0.874;2022-12-18T01:01:55;100960.84;;;19.20;
46015;BME280;36844;51.898;-0.874;2022-12-18T01:04:20;100962.78;;;19.16;
46015;BME280;36844;51.898;-0.874;2022-12-18T01:06:45;100957.38;;;19.13;
46015;BME280;36844;51.898;-0.874;2022-12-18T01:09:10;100954.31;;;19.11;
46015;BME280;36844;51.898;-0.874;2022-12-18T01:11:36;100952.41;;;19.08;
46015;BME280;36844;51.898;-0.874;2022-12-18T01:14:01;100950.09;;;19.03;
46015;BME280;36844;51.898;-0.874;2022-12-18T01:16:26;100943.56;;;19.00;
46015;BME280;36844;51.898;-0.874;2022-12-18T01:18:52;100950.88;;;18.96;
46015;BME280;36844;51.898;-0.874;2022-12-18T01:21:18;100942.81;;;18.93;
46015;BME280;36844;51.898;-0.874;2022-12-18T01:23:43;100937.78;;;18.91;
46015;BME280;36844;51.898;-0.874;2022-12-18T01:26:11;100927.00;;;18.88;
46015;BME280;36844;51.898;-0.874;2022-12-18T01:28:37;100928.56;;;18.85;
46015;BME280;36844;51.898;-0.874;2022-12-18T01:31:09;100920.47;;;18.82;
46015;BME280;36844;51.898;-0.874;2022-12-18T01:33:34;100920.47;;;18.78;
46015;BME280;36844;51.898;-0.874;2022-12-18T01:35:59;100912.34;;;18.74;
46015;BME280;36844;51.898;-0.874;2022-12-18T01:38:25;100915.06;;;18.71;
46015;BME280;36844;51.898;-0.874;2022-12-18T01:40:56;100908.53;;;18.68;
46015;BME280;36844;51.898;-0.874;2022-12-18T01:43:21;100915.09;;;18.64;
46015;BME280;36844;51.898;-0.874;2022-12-18T01:45:46;100914.72;;;18.62;
46015;BME280;36844;51.898;-0.874;2022-12-18T01:48:12;100926.28;;;18.59;
46015;BME280;36844;51.898;-0.874;2022-12-18T01:50:38;100921.66;;;18.56;
46015;BME280;36844;51.898;-0.874;2022-12-18T01:53:14;100926.69;;;18.54;
46015;BME280;36844;51.898;-0.874;2022-12-18T01:55:45;100925.91;;;18.50;
46015;BME280;36844;51.898;-0.874;2022-12-18T01:58:11;100926.69;;;18.47;
46015;BME280;36844;51.898;-0.874;2022-12-18T02:00:37;100931.69;;;18.45;
46015;BME280;36844;51.898;-0.874;2022-12-18T02:03:02;100931.69;;;18.41;
46015;BME280;36844;51.898;-0.874;2022-12-18T02:05:40;100927.84;;;18.39;
46015;BME280;36844;51.898;-0.874;2022-12-18T02:08:10;100929.78;;;18.35;
46015;BME280;36844;51.898;-0.874;2022-12-18T02:18:09;100941.31;;;18.25;
46015;BME280;36844;51.898;-0.874;2022-12-18T02:20:44;100941.31;;;18.21;
46015;BME280;36844;51.898;-0.874;2022-12-18T02:28:22;100959.38;;;18.14;
46015;BME280;36844;51.898;-0.874;2022-12-18T02:30:50;100960.16;;;18.11;
46015;BME280;36844;51.898;-0.874;2022-12-18T02:33:17;100959.03;;;18.08;
46015;BME280;36844;51.898;-0.874;2022-12-18T02:35:44;100960.56;;;18.06;
46015;BME280;36844;51.898;-0.874;2022-12-18T02:38:10;100968.25;;;18.04;
46015;BME280;36844;51.898;-0.874;2022-12-18T02:40:36;100969.81;;;18.01;
46015;BME280;36844;51.898;-0.874;2022-12-18T02:43:07;100980.16;;;17.99;
46015;BME280;36844;51.898;-0.874;2022-12-18T02:45:32;100980.94;;;17.96;
46015;BME280;36844;51.898;-0.874;2022-12-18T02:47:57;100973.25;;;17.95;
46015;BME280;36844;51.898;-0.874;2022-12-18T02:50:26;100973.63;;;17.93;
46015;BME280;36844;51.898;-0.874;2022-12-18T02:53:00;100977.06;;;17.90;
46015;BME280;36844;51.898;-0.874;2022-12-18T03:00:29;100944.72;;;17.83;
46015;BME280;36844;51.898;-0.874;2022-12-18T03:02:59;100941.63;;;17.81;
46015;BME280;36844;51.898;-0.874;2022-12-18T03:05:37;100933.16;;;17.79;
46015;BME280;36844;51.898;-0.874;2022-12-18T03:08:06;100940.09;;;17.77;
46015;BME280;36844;51.898;-0.874;2022-12-18T03:10:34;100928.53;;;17.72;
46015;BME280;36844;51.898;-0.874;2022-12-18T03:13:09;100920.44;;;17.72;
46015;BME280;36844;51.898;-0.874;2022-12-18T03:15:37;100921.59;;;17.68;
46015;BME280;36844;51.898;-0.874;2022-12-18T03:18:08;100920.81;;;17.67;
46015;BME280;36844;51.898;-0.874;2022-12-18T03:20:35;100908.09;;;17.64;
46015;BME280;36844;51.898;-0.874;2022-12-18T03:23:07;100891.56;;;17.62;
46015;BME280;36844;51.898;-0.874;2022-12-18T03:25:34;100883.06;;;17.60;
46015;BME280;36844;51.898;-0.874;2022-12-18T03:28:00;100884.63;;;17.58;
46015;BME280;36844;51.898;-0.874;2022-12-18T03:30:28;100886.53;;;17.57;
46015;BME280;36844;51.898;-0.874;2022-12-18T03:33:40;100895.41;;;17.54;
46015;BME280;36844;51.898;-0.874;2022-12-18T03:35:40;100893.41;;;17.51;
46015;BME280;36844;51.898;-0.874;2022-12-18T03:38:07;100879.59;;;17.49;
46015;BME280;36844;51.898;-0.874;2022-12-18T03:41:15;100889.59;;;17.49;
46015;BME280;36844;51.898;-0.874;2022-12-18T03:48:47;100876.09;;;17.42;
46015;BME280;36844;51.898;-0.874;2022-12-18T03:51:18;100875.72;;;17.40;
46015;BME280;36844;51.898;-0.874;2022-12-18T03:53:47;100859.94;;;17.38;
46015;BME280;36844;51.898;-0.874;2022-12-18T03:56:15;100863.41;;;17.35;
46015;BME280;36844;51.898;-0.874;2022-12-18T03:58:41;100867.22;;;17.34;
46015;BME280;36844;51.898;-0.874;2022-12-18T04:01:07;100864.16;;;17.32;
46015;BME280;36844;51.898;-0.874;2022-12-18T04:03:33;100863.75;;;17.30;
46015;BME280;36844;51.898;-0.874;2022-12-18T04:05:59;100855.31;;;17.28;
46015;BME280;36844;51.898;-0.874;2022-12-18T04:08:25;100864.53;;;17.27;
46015;BME280;36844;51.898;-0.874;2022-12-18T04:10:51;100853.34;;;17.25;
46015;BME280;36844;51.898;-0.874;2022-12-18T04:13:29;100851.84;;;17.24;
46015;BME280;36844;51.898;-0.874;2022-12-18T04:15:54;100844.13;;;17.23;
46015;BME280;36844;51.898;-0.874;2022-12-18T04:18:20;100842.97;;;17.20;
46015;BME280;36844;51.898;-0.874;2022-12-18T04:20:45;100839.84;;;17.18;
46015;BME280;36844;51.898;-0.874;2022-12-18T04:23:11;100841.03;;;17.17;
46015;BME280;36844;51.898;-0.874;2022-12-18T04:25:36;100836.03;;;17.16;
46015;BME280;36844;51.898;-0.874;2022-12-18T04:28:01;100832.94;;;17.14;
46015;BME280;36844;51.898;-0.874;2022-12-18T04:30:26;100818.31;;;17.11;
46015;BME280;36844;51.898;-0.874;2022-12-18T04:32:51;100827.50;;;17.10;
46015;BME280;36844;51.898;-0.874;2022-12-18T04:35:17;100832.53;;;17.08;
46015;BME280;36844;51.898;-0.874;2022-12-18T04:37:42;100834.44;;;17.08;
46015;BME280;36844;51.898;-0.874;2022-12-18T04:40:07;100832.13;;;17.06;
46015;BME280;36844;51.898;-0.874;2022-12-18T04:42:33;100829.06;;;17.04;
46015;BME280;36844;51.898;-0.874;2022-12-18T04:44:58;100823.28;;;17.02;
46015;BME280;36844;51.898;-0.874;2022-12-18T04:47:23;100813.69;;;17.01;
46015;BME280;36844;51.898;-0.874;2022-12-18T04:49:48;100797.09;;;16.99;
46015;BME280;36844;51.898;-0.874;2022-12-18T04:52:14;100792.88;;;16.98;
46015;BME280;36844;51.898;-0.874;2022-12-18T04:54:39;100787.13;;;16.96;
46015;BME280;36844;51.898;-0.874;2022-12-18T04:57:04;100784.81;;;16.95;
46015;BME280;36844;51.898;-0.874;2022-12-18T04:59:29;100777.91;;;16.94;
46015;BME280;36844;51.898;-0.874;2022-12-18T05:01:55;100776.72;;;16.91;
46015;BME280;36844;51.898;-0.874;2022-12-18T05:04:20;100769.78;;;16.90;
46015;BME280;36844;51.898;-0.874;2022-12-18T05:06:45;100773.66;;;16.89;
46015;BME280;36844;51.898;-0.874;2022-12-18T05:09:10;100751.72;;;16.87;
46015;BME280;36844;51.898;-0.874;2022-12-18T05:11:36;100752.88;;;16.86;
46015;BME280;36844;51.898;-0.874;2022-12-18T05:14:01;100739.81;;;16.85;
46015;BME280;36844;51.898;-0.874;2022-12-18T05:16:26;100726.72;;;16.83;
46015;BME280;36844;51.898;-0.874;2022-12-18T05:18:51;100719.06;;;16.82;
46015;BME280;36844;51.898;-0.874;2022-12-18T05:21:17;100727.47;;;16.80;
46015;BME280;36844;51.898;-0.874;2022-12-18T05:23:42;100731.31;;;16.79;
46015;BME280;36844;51.898;-0.874;2022-12-18T05:26:07;100737.09;;;16.77;
46015;BME280;36844;51.898;-0.874;2022-12-18T05:28:33;100729.38;;;16.76;
46015;BME280;36844;51.898;-0.874;2022-12-18T05:31:00;100731.69;;;16.74;
46015;BME280;36844;51.898;-0.874;2022-12-18T05:33:26;100727.47;;;16.73;
46015;BME280;36844;51.898;-0.874;2022-12-18T05:35:52;100727.84;;;16.71;
46015;BME280;36844;51.898;-0.874;2022-12-18T05:38:18;100731.69;;;16.70;
46015;BME280;36844;51.898;-0.874;2022-12-18T05:40:43;100734.75;;;16.69;
46015;BME280;36844;51.898;-0.874;2022-12-18T05:43:08;100731.66;;;16.67;
46015;BME280;36844;51.898;-0.874;2022-12-18T05:45:36;100727.44;;;16.66;
46015;BME280;36844;51.898;-0.874;2022-12-18T05:48:01;100725.09;;;16.64;
46015;BME280;36844;51.898;-0.874;2022-12-18T05:50:26;100717.44;;;16.63;
46015;BME280;36844;51.898;-0.874;2022-12-18T05:52:51;100714.34;;;16.61;
46015;BME280;36844;51.898;-0.874;2022-12-18T05:55:17;100721.66;;;16.60;
46015;BME280;36844;51.898;-0.874;2022-12-18T05:57:42;100716.66;;;16.59;
46015;BME280;36844;51.898;-0.874;2022-12-18T06:00:07;100707.03;;;16.58;
46015;BME280;36844;51.898;-0.874;2022-12-18T06:02:33;100693.97;;;16.56;
46015;BME280;36844;51.898;-0.874;2022-12-18T06:04:58;100694.38;;;16.55;
46015;BME280;36844;51.898;-0.874;2022-12-18T06:07:23;100694.72;;;16.53;
46015;BME280;36844;51.898;-0.874;2022-12-18T06:09:48;100689.72;;;16.52;
46015;BME280;36844;51.898;-0.874;2022-12-18T06:12:13;100687.41;;;16.50;
46015;BME280;36844;51.898;-0.874;2022-12-18T06:14:39;100685.88;;;16.49;
46015;BME280;36844;51.898;-0.874;2022-12-18T06:17:04;100671.28;;;16.47;
46015;BME280;36844;51.898;-0.874;2022-12-18T06:19:29;100654.75;;;16.45;
46015;BME280;36844;51.898;-0.874;2022-12-18T06:21:54;100652.47;;;16.43;
46015;BME280;36844;51.898;-0.874;2022-12-18T06:24:22;100653.59;;;16.42;
46015;BME280;36844;51.898;-0.874;2022-12-18T06:26:47;100644.75;;;16.42;
46015;BME280;36844;51.898;-0.874;2022-12-18T06:29:13;100642.44;;;16.40;
46015;BME280;36844;51.898;-0.874;2022-12-18T06:31:38;100646.28;;;16.39;
46015;BME280;36844;51.898;-0.874;2022-12-18T06:34:03;100650.50;;;16.37;
46015;BME280;36844;51.898;-0.874;2022-12-18T06:36:29;100646.66;;;16.38;
46015;BME280;36844;51.898;-0.874;2022-12-18T06:38:54;100645.50;;;16.35;
46015;BME280;36844;51.898;-0.874;2022-12-18T06:41:20;100647.41;;;16.35;
46015;BME280;36844;51.898;-0.874;2022-12-18T06:43:45;100645.88;;;16.34;
46015;BME280;36844;51.898;-0.874;2022-12-18T06:46:11;100646.25;;;16.32;
46015;BME280;36844;51.898;-0.874;2022-12-18T06:48:36;100656.25;;;16.32;
46015;BME280;36844;51.898;-0.874;2022-12-18T06:51:02;100657.38;;;16.31;
46015;BME280;36844;51.898;-0.874;2022-12-18T06:53:27;100652.00;;;16.31;
46015;BME280;36844;51.898;-0.874;2022-12-18T06:55:58;100654.69;;;16.31;
46015;BME280;36844;51.898;-0.874;2022-12-18T06:58:24;100658.94;;;16.32;
46015;BME280;36844;51.898;-0.874;2022-12-18T07:00:49;100655.84;;;16.33;
46015;BME280;36844;51.898;-0.874;2022-12-18T07:03:14;100653.94;;;16.34;
46015;BME280;36844;51.898;-0.874;2022-12-18T07:05:40;100648.19;;;16.35;
46015;BME280;36844;51.898;-0.874;2022-12-18T07:08:06;100632.44;;;16.37;
46015;BME280;36844;51.898;-0.874;2022-12-18T07:10:31;100621.31;;;16.39;
46015;BME280;36844;51.898;-0.874;2022-12-18T07:12:56;100619.03;;;16.41;
46015;BME280;36844;51.898;-0.874;2022-12-18T07:15:22;100603.28;;;16.43;
46015;BME280;36844;51.898;-0.874;2022-12-18T07:17:47;100601.75;;;16.45;
46015;BME280;36844;51.898;-0.874;2022-12-18T07:20:12;100594.47;;;16.49;
46015;BME280;36844;51.898;-0.874;2022-12-18T07:22:37;100591.41;;;16.51;
46015;BME280;36844;51.898;-0.874;2022-12-18T07:25:02;100592.19;;;16.55;
46015;BME280;36844;51.898;-0.874;2022-12-18T07:27:28;100576.84;;;16.59;
46015;BME280;36844;51.898;-0.874;2022-12-18T07:29:53;100573.38;;;16.62;
46015;BME280;36844;51.898;-0.874;2022-12-18T07:32:18;100581.44;;;16.65;
46015;BME280;36844;51.898;-0.874;2022-12-18T07:34:44;100579.53;;;16.69;
46015;BME280;36844;51.898;-0.874;2022-12-18T07:37:09;100576.84;;;16.73;
46015;BME280;36844;51.898;-0.874;2022-12-18T07:39:34;100577.63;;;16.77;
46015;BME280;36844;51.898;-0.874;2022-12-18T07:41:59;100563.41;;;16.80;
46015;BME280;36844;51.898;-0.874;2022-12-18T07:44:43;100563.03;;;16.85;
46015;BME280;36844;51.898;-0.874;2022-12-18T07:47:09;100574.56;;;16.89;
46015;BME280;36844;51.898;-0.874;2022-12-18T07:49:34;100578.03;;;16.93;
46015;BME280;36844;51.898;-0.874;2022-12-18T07:51:59;100588.41;;;16.98;
46015;BME280;36844;51.898;-0.874;2022-12-18T07:54:24;100593.03;;;17.01;
46015;BME280;36844;51.898;-0.874;2022-12-18T07:56:50;100598.03;;;17.06;
46015;BME280;36844;51.898;-0.874;2022-12-18T07:59:15;100593.38;;;17.10;
46015;BME280;36844;51.898;-0.874;2022-12-18T08:01:40;100591.47;;;17.14;
46015;BME280;36844;51.898;-0.874;2022-12-18T08:04:06;100586.84;;;17.18;
46015;BME280;36844;51.898;-0.874;2022-12-18T08:06:31;100592.25;;;17.22;
46015;BME280;36844;51.898;-0.874;2022-12-18T08:08:56;100593.00;;;17.26;
46015;BME280;36844;51.898;-0.874;2022-12-18T08:11:22;100606.47;;;17.29;
46015;BME280;36844;51.898;-0.874;2022-12-18T08:13:48;100612.25;;;17.31;
46015;BME280;36844;51.898;-0.874;2022-12-18T08:16:13;100613.81;;;17.36;
46015;BME280;36844;51.898;-0.874;2022-12-18T08:18:38;100591.47;;;17.39;
46015;BME280;36844;51.898;-0.874;2022-12-18T08:21:08;100590.69;;;17.42;
46015;BME280;36844;51.898;-0.874;2022-12-18T08:23:33;100604.16;;;17.45;
46015;BME280;36844;51.898;-0.874;2022-12-18T08:25:58;100610.31;;;17.49;
46015;BME280;36844;51.898;-0.874;2022-12-18T08:28:23;100618.38;;;17.53;
46015;BME280;36844;51.898;-0.874;2022-12-18T08:30:51;100611.41;;;17.55;
46015;BME280;36844;51.898;-0.874;2022-12-18T08:33:16;100597.22;;;17.58;
46015;BME280;36844;51.898;-0.874;2022-12-18T08:35:42;100592.19;;;17.60;
46015;BME280;36844;51.898;-0.874;2022-12-18T08:38:07;100603.72;;;17.64;
46015;BME280;36844;51.898;-0.874;2022-12-18T08:40:32;100619.88;;;17.68;
46015;BME280;36844;51.898;-0.874;2022-12-18T08:42:57;100621.03;;;17.70;
46015;BME280;36844;51.898;-0.874;2022-12-18T08:45:41;100602.91;;;17.74;
46015;BME280;36844;51.898;-0.874;2022-12-18T08:48:07;100606.38;;;17.78;
46015;BME280;36844;51.898;-0.874;2022-12-18T08:50:32;100602.94;;;17.82;
46015;BME280;36844;51.898;-0.874;2022-12-18T08:52:57;100609.84;;;17.83;
46015;BME280;36844;51.898;-0.874;2022-12-18T08:55:23;100602.50;;;17.87;
46015;BME280;36844;51.898;-0.874;2022-12-18T08:57:48;100617.16;;;17.89;
46015;BME280;36844;51.898;-0.874;2022-12-18T09:00:14;100612.13;;;17.91;
46015;BME280;36844;51.898;-0.874;2022-12-18T09:02:39;100613.25;;;17.94;
46015;BME280;36844;51.898;-0.874;2022-12-18T09:05:05;100622.50;;;17.96;
46015;BME280;36844;51.898;-0.874;2022-12-18T09:07:30;100620.97;;;17.99;
46015;BME280;36844;51.898;-0.874;2022-12-18T09:09:55;100626.72;;;18.01;
46015;BME280;36844;51.898;-0.874;2022-12-18T09:12:20;100635.94;;;18.03;
46015;BME280;36844;51.898;-0.874;2022-12-18T09:14:46;100629.78;;;18.06;
46015;BME280;36844;51.898;-0.874;2022-12-18T09:17:11;100633.66;;;18.09;
46015;BME280;36844;51.898;-0.874;2022-12-18T09:19:36;100626.69;;;18.11;
46015;BME280;36844;51.898;-0.874;2022-12-18T09:22:01;100625.13;;;18.14;
46015;BME280;36844;51.898;-0.874;2022-12-18T09:24:27;100627.44;;;18.15;
46015;BME280;36844;51.898;-0.874;2022-12-18T09:26:53;100621.25;;;18.18;
46015;BME280;36844;51.898;-0.874;2022-12-18T09:29:18;100625.50;;;18.19;
46015;BME280;36844;51.898;-0.874;2022-12-18T09:31:43;100609.69;;;18.21;
46015;BME280;36844;51.898;-0.874;2022-12-18T09:34:08;100605.06;;;18.22;
46015;BME280;36844;51.898;-0.874;2022-12-18T09:36:33;100621.22;;;18.25;
46015;BME280;36844;51.898;-0.874;2022-12-18T09:38:59;100622.78;;;18.26;
46015;BME280;36844;51.898;-0.874;2022-12-18T09:41:33;100617.00;;;18.28;
46015;BME280;36844;51.898;-0.874;2022-12-18T09:44:00;100611.19;;;18.29;
46015;BME280;36844;51.898;-0.874;2022-12-18T09:46:27;100606.56;;;18.30;
46015;BME280;36844;51.898;-0.874;2022-12-18T09:48:54;100597.34;;;18.31;
46015;BME280;36844;51.898;-0.874;2022-12-18T09:51:23;100600.81;;;18.31;
46015;BME280;36844;51.898;-0.874;2022-12-18T09:53:53;100593.47;;;18.32;
46015;BME280;36844;51.898;-0.874;2022-12-18T09:56:20;100587.34;;;18.31;
46015;BME280;36844;51.898;-0.874;2022-12-18T10:01:21;100573.84;;;18.31;
46015;BME280;36844;51.898;-0.874;2022-12-18T10:03:47;100561.13;;;18.32;
46015;BME280;36844;51.898;-0.874;2022-12-18T10:13:55;100553.41;;;18.30;
46015;BME280;36844;51.898;-0.874;2022-12-18T10:16:24;100548.03;;;18.30;
46015;BME280;36844;51.898;-0.874;2022-12-18T10:24:15;100529.97;;;18.27;
46015;BME280;36844;51.898;-0.874;2022-12-18T10:26:46;100518.00;;;18.25;
46015;BME280;36844;51.898;-0.874;2022-12-18T10:29:12;100504.50;;;18.25;
46015;BME280;36844;51.898;-0.874;2022-12-18T10:31:37;100489.53;;;18.24;
46015;BME280;36844;51.898;-0.874;2022-12-18T10:34:02;100488.78;;;18.23;
46015;BME280;36844;51.898;-0.874;2022-12-18T10:36:28;100474.50;;;18.23;
46015;BME280;36844;51.898;-0.874;2022-12-18T10:38:53;100467.19;;;18.23;
46015;BME280;36844;51.898;-0.874;2022-12-18T10:43:44;100467.19;;;18.23;
46015;BME280;36844;51.898;-0.874;2022-12-18T10:51:16;100468.31;;;18.26;
46015;BME280;36844;51.898;-0.874;2022-12-18T10:53:44;100457.94;;;18.28;
46015;BME280;36844;51.898;-0.874;2022-12-18T10:56:18;100441.31;;;18.29;
46015;BME280;36844;51.898;-0.874;2022-12-18T10:58:44;100440.97;;;18.31;
46015;BME280;36844;51.898;-0.874;2022-12-18T11:01:19;100431.28;;;18.33;
46015;BME280;36844;51.898;-0.874;2022-12-18T11:06:11;100415.06;;;18.37;
46015;BME280;36844;51.898;-0.874;2022-12-18T11:08:37;100407.34;;;18.39;
46015;BME280;36844;51.898;-0.874;2022-12-18T11:11:02;100410.78;;;18.43;
46015;BME280;36844;51.898;-0.874;2022-12-18T11:13:29;100416.56;;;18.45;
46015;BME280;36844;51.898;-0.874;2022-12-18T11:15:55;100410.34;;;18.48;
46015;BME280;36844;51.898;-0.874;2022-12-18T11:18:28;100402.63;;;18.50;
46015;BME280;36844;51.898;-0.874;2022-12-18T11:20:55;100404.53;;;18.53;
46015;BME280;36844;51.898;-0.874;2022-12-18T11:23:22;100396.81;;;18.55;
46015;BME280;36844;51.898;-0.874;2022-12-18T11:25:59;100401.41;;;18.58;
46015;BME280;36844;51.898;-0.874;2022-12-18T11:28:28;100391.72;;;18.60;
46015;BME280;36844;51.898;-0.874;2022-12-18T11:33:39;100386.31;;;18.64;
46015;BME280;36844;51.898;-0.874;2022-12-18T11:36:06;100392.09;;;18.66;
46015;BME280;36844;51.898;-0.874;2022-12-18T11:38:34;100385.88;;;18.69;
46015;BME280;36844;51.898;-0.874;2022-12-18T11:41:14;100379.34;;;18.70;
46015;BME280;36844;51.898;-0.874;2022-12-18T11:43:43;100379.66;;;18.72;
46015;BME280;36844;51.898;-0.874;2022-12-18T11:46:14;100372.69;;;18.74;
46015;BME280;36844;51.898;-0.874;2022-12-18T11:48:44;100365.75;;;18.77;
46015;BME280;36844;51.898;-0.874;2022-12-18T11:51:13;100350.31;;;18.77;
46015;BME280;36844;51.898;-0.874;2022-12-18T11:53:39;100340.66;;;18.80;
46015;BME280;36844;51.898;-0.874;2022-12-18T11:56:19;100341.78;;;18.83;
46015;BME280;36844;51.898;-0.874;2022-12-18T11:58:59;100328.66;;;18.85;
46015;BME280;36844;51.898;-0.874;2022-12-18T12:17:01;100272.25;;;18.94;
46015;BME280;36844;51.898;-0.874;2022-12-18T12:22:13;100257.19;;;18.96;
46015;BME280;36844;51.898;-0.874;2022-12-18T12:39:52;100218.94;;;19.01;
46015;BME280;36844;51.898;-0.874;2022-12-18T12:45:23;100223.59;;;19.01;
46015;BME280;36844;51.898;-0.874;2022-12-18T12:47:51;100207.38;;;19.01;
46015;BME280;36844;51.898;-0.874;2022-12-18T12:50:17;100207.38;;;19.01;
46015;BME280;36844;51.898;-0.874;2022-12-18T12:52:44;100208.13;;;19.01;
46015;BME280;36844;51.898;-0.874;2022-12-18T12:55:24;100197.69;;;19.03;
46015;BME280;36844;51.898;-0.874;2022-12-18T13:00:18;100196.53;;;19.04;
46015;BME280;36844;51.898;-0.874;2022-12-18T13:05:49;100187.25;;;19.05;
46015;BME280;36844;51.898;-0.874;2022-12-18T13:08:26;100170.31;;;19.05;
46015;BME280;36844;51.898;-0.874;2022-12-18T13:10:52;100164.09;;;19.08;
46015;BME280;36844;51.898;-0.874;2022-12-18T13:13:50;100164.09;;;19.08;
46015;BME280;36844;51.898;-0.874;2022-12-18T13:16:20;100156.75;;;19.08;
46015;BME280;36844;51.898;-0.874;2022-12-18T13:18:52;100148.66;;;19.08;
46015;BME280;36844;51.898;-0.874;2022-12-18T13:23:44;100143.28;;;19.08;
46015;BME280;36844;51.898;-0.874;2022-12-18T13:32:00;100125.16;;;19.09;
46015;BME280;36844;51.898;-0.874;2022-12-18T13:36:41;100106.63;;;19.07;
46015;BME280;36844;51.898;-0.874;2022-12-18T13:41:47;100091.28;;;19.04;
46015;BME280;36844;51.898;-0.874;2022-12-18T13:44:20;100093.19;;;19.04;
46015;BME280;36844;51.898;-0.874;2022-12-18T13:46:48;100074.69;;;19.02;
46015;BME280;36844;51.898;-0.874;2022-12-18T13:51:49;100073.59;;;19.00;
46015;BME280;36844;51.898;-0.874;2022-12-18T13:56:43;100073.25;;;18.98;
46015;BME280;36844;51.898;-0.874;2022-12-18T13:59:17;100061.31;;;18.95;
46015;BME280;36844;51.898;-0.874;2022-12-18T14:01:47;100052.91;;;18.93;
46015;BME280;36844;51.898;-0.874;2022-12-18T14:04:24;100047.16;;;18.91;
46015;BME280;36844;51.898;-0.874;2022-12-18T14:06:51;100047.53;;;18.90;
46015;BME280;36844;51.898;-0.874;2022-12-18T14:09:25;100038.34;;;18.87;
46015;BME280;36844;51.898;-0.874;2022-12-18T14:11:50;100044.16;;;18.86;
46015;BME280;36844;51.898;-0.874;2022-12-18T14:14:17;100041.88;;;18.84;
46015;BME280;36844;51.898;-0.874;2022-12-18T14:16:42;100039.25;;;18.81;
46015;BME280;36844;51.898;-0.874;2022-12-18T14:19:08;100034.22;;;18.79;
46015;BME280;36844;51.898;-0.874;2022-12-18T14:21:37;100043.16;;;18.76;
46015;BME280;36844;51.898;-0.874;2022-12-18T14:24:03;100028.13;;;18.75;
46015;BME280;36844;51.898;-0.874;2022-12-18T14:26:29;100034.34;;;18.72;
46015;BME280;36844;51.898;-0.874;2022-12-18T14:28:56;100020.53;;;18.70;
46015;BME280;36844;51.898;-0.874;2022-12-18T14:31:22;100016.69;;;18.67;
46015;BME280;36844;51.898;-0.874;2022-12-18T14:33:48;100008.28;;;18.65;
46015;BME280;36844;51.898;-0.874;2022-12-18T14:36:17;99985.56;;;18.63;
46015;BME280;36844;51.898;-0.874;2022-12-18T14:38:43;100001.41;;;18.61;
46015;BME280;36844;51.898;-0.874;2022-12-18T14:41:17;99989.06;;;18.60;
46015;BME280;36844;51.898;-0.874;2022-12-18T14:43:44;99978.34;;;18.56;
46015;BME280;36844;51.898;-0.874;2022-12-18T14:48:53;99975.31;;;18.54;
46015;BME280;36844;51.898;-0.874;2022-12-18T14:51:20;99966.88;;;18.52;
46015;BME280;36844;51.898;-0.874;2022-12-18T14:56:26;99950.69;;;18.52;
46015;BME280;36844;51.898;-0.874;2022-12-18T14:59:13;99935.25;;;18.53;
46015;BME280;36844;51.898;-0.874;2022-12-18T15:01:38;99952.22;;;18.53;
46015;BME280;36844;51.898;-0.874;2022-12-18T15:04:23;99952.56;;;18.55;
46015;BME280;36844;51.898;-0.874;2022-12-18T15:06:50;99951.38;;;18.56;
46015;BME280;36844;51.898;-0.874;2022-12-18T15:09:27;99959.84;;;18.58;
46015;BME280;36844;51.898;-0.874;2022-12-18T15:11:56;99945.91;;;18.60;
46015;BME280;36844;51.898;-0.874;2022-12-18T15:14:23;99944.38;;;18.62;
46015;BME280;36844;51.898;-0.874;2022-12-18T15:16:53;99936.59;;;18.64;
46015;BME280;36844;51.898;-0.874;2022-12-18T15:19:19;99928.13;;;18.66;
46015;BME280;36844;51.898;-0.874;2022-12-18T15:21:45;99917.25;;;18.69;
46015;BME280;36844;51.898;-0.874;2022-12-18T15:24:16;99916.44;;;18.72;
46015;BME280;36844;51.898;-0.874;2022-12-18T15:26:42;99917.53;;;18.75;
46015;BME280;36844;51.898;-0.874;2022-12-18T15:29:15;99910.13;;;18.79;
46015;BME280;36844;51.898;-0.874;2022-12-18T15:31:44;99910.50;;;18.81;